Time;durP1;ratioP1;P1;durP2;ratioP2;P2;SDS_P1;SDS_P2;PMS_P1;PMS_P2;Temp;Humidity;BMP_temperature;BMP_pressure;BME280_temperature;BME280_humidity;BME280_pressure;Samples;Min_cycle;Max_cycle;Signal;HPM_P1;HPM_P2
2021/10/21 00:00:46;;;;;;;2.7;2.3;;;;;;;;;;;;;
2021/10/21 00:03:11;;;;;;;3.6;2.3;;;;;;;;;;;;;
2021/10/21 00:05:36;;;;;;;3;2.1;;;;;;;;;;;;;
2021/10/21 00:08:01;;;;;;;3.2;2.1;;;;;;;;;;;;;
2021/10/21 00:10:26;;;;;;;3.1;2.2;;;;;;;;;;;;;
2021/10/21 00:12:51;;;;;;;2.6;2;;;;;;;;;;;;;
2021/10/21 00:15:18;;;;;;;3.7;2.1;;;;;;;;;;;;;
2021/10/21 00:17:43;;;;;;;2.7;2;;;;;;;;;;;;;
2021/10/21 00:20:09;;;;;;;2.3;1.9;;;;;;;;;;;;;
2021/10/21 00:22:33;;;;;;;2.7;2.1;;;;;;;;;;;;;
2021/10/21 00:24:58;;;;;;;3;2.3;;;;;;;;;;;;;
2021/10/21 00:27:24;;;;;;;3;2.2;;;;;;;;;;;;;
2021/10/21 00:29:48;;;;;;;2.5;2.2;;;;;;;;;;;;;
2021/10/21 00:32:14;;;;;;;2.7;2.3;;;;;;;;;;;;;
2021/10/21 00:34:39;;;;;;;2.8;2;;;;;;;;;;;;;
2021/10/21 00:37:04;;;;;;;3.7;2.2;;;;;;;;;;;;;
2021/10/21 00:39:30;;;;;;;3;2.2;;;;;;;;;;;;;
2021/10/21 00:41:55;;;;;;;3;2.3;;;;;;;;;;;;;
2021/10/21 00:44:20;;;;;;;4.2;2.2;;;;;;;;;;;;;
2021/10/21 00:46:45;;;;;;;3.2;2.2;;;;;;;;;;;;;
2021/10/21 00:49:10;;;;;;;2.9;2.1;;;;;;;;;;;;;
2021/10/21 00:51:35;;;;;;;3.6;2.5;;;;;;;;;;;;;
2021/10/21 00:54:00;;;;;;;2.8;2.2;;;;;;;;;;;;;
2021/10/21 00:56:26;;;;;;;2.6;2.1;;;;;;;;;;;;;
2021/10/21 00:58:51;;;;;;;3.5;2.4;;;;;;;;;;;;;
2021/10/21 01:01:16;;;;;;;4.2;2.1;;;;;;;;;;;;;
2021/10/21 01:03:41;;;;;;;2.7;2.2;;;;;;;;;;;;;
2021/10/21 01:06:06;;;;;;;2.8;2.3;;;;;;;;;;;;;
2021/10/21 01:08:32;;;;;;;3.3;2.5;;;;;;;;;;;;;
2021/10/21 01:10:57;;;;;;;3.1;2.3;;;;;;;;;;;;;
2021/10/21 01:13:22;;;;;;;2.8;2.4;;;;;;;;;;;;;
2021/10/21 01:15:47;;;;;;;2.7;2.3;;;;;;;;;;;;;
2021/10/21 01:18:12;;;;;;;3;2.3;;;;;;;;;;;;;
2021/10/21 01:20:38;;;;;;;3.2;2.5;;;;;;;;;;;;;
2021/10/21 01:23:03;;;;;;;2.7;2.1;;;;;;;;;;;;;
2021/10/21 01:25:28;;;;;;;23.9;2.8;;;;;;;;;;;;;
2021/10/21 01:27:53;;;;;;;2.9;2;;;;;;;;;;;;;
2021/10/21 01:30:19;;;;;;;2.3;1.9;;;;;;;;;;;;;
2021/10/21 01:32:44;;;;;;;2.4;2.2;;;;;;;;;;;;;
2021/10/21 01:35:11;;;;;;;2.2;2;;;;;;;;;;;;;
2021/10/21 01:37:36;;;;;;;2.3;2.1;;;;;;;;;;;;;
2021/10/21 01:40:01;;;;;;;2.3;2.1;;;;;;;;;;;;;
2021/10/21 01:42:27;;;;;;;3.1;2.4;;;;;;;;;;;;;
2021/10/21 01:44:51;;;;;;;2.4;2.2;;;;;;;;;;;;;
2021/10/21 01:47:16;;;;;;;2.5;2.1;;;;;;;;;;;;;
2021/10/21 01:49:41;;;;;;;2.2;2;;;;;;;;;;;;;
2021/10/21 01:52:06;;;;;;;2.5;2.2;;;;;;;;;;;;;
2021/10/21 01:54:32;;;;;;;2.5;2;;;;;;;;;;;;;
2021/10/21 01:56:57;;;;;;;2.6;2.2;;;;;;;;;;;;;
2021/10/21 01:59:22;;;;;;;3.3;2.2;;;;;;;;;;;;;
2021/10/21 02:01:47;;;;;;;4.8;2.2;;;;;;;;;;;;;
2021/10/21 02:04:12;;;;;;;2.4;2.1;;;;;;;;;;;;;
2021/10/21 02:06:37;;;;;;;2;1.9;;;;;;;;;;;;;
2021/10/21 02:09:02;;;;;;;3.8;2.5;;;;;;;;;;;;;
2021/10/21 02:11:27;;;;;;;5.3;2.5;;;;;;;;;;;;;
2021/10/21 02:13:52;;;;;;;2.6;2.1;;;;;;;;;;;;;
2021/10/21 02:16:18;;;;;;;4.4;2.3;;;;;;;;;;;;;
2021/10/21 02:18:43;;;;;;;3.6;2.4;;;;;;;;;;;;;
2021/10/21 02:21:08;;;;;;;2.4;2.2;;;;;;;;;;;;;
2021/10/21 02:23:33;;;;;;;4.7;2.5;;;;;;;;;;;;;
2021/10/21 02:26:03;;;;;;;3.1;2.5;;;;;;;;;;;;;
2021/10/21 02:28:23;;;;;;;3.5;2.1;;;;;;;;;;;;;
2021/10/21 02:30:49;;;;;;;4.5;2.5;;;;;;;;;;;;;
2021/10/21 02:33:14;;;;;;;3;2.7;;;;;;;;;;;;;
2021/10/21 02:35:39;;;;;;;3;2.7;;;;;;;;;;;;;
2021/10/21 02:38:04;;;;;;;3.4;2.5;;;;;;;;;;;;;
2021/10/21 02:40:29;;;;;;;2.9;2.6;;;;;;;;;;;;;
2021/10/21 02:42:54;;;;;;;2.8;2.4;;;;;;;;;;;;;
2021/10/21 02:45:21;;;;;;;3.9;2.8;;;;;;;;;;;;;
2021/10/21 02:47:45;;;;;;;4.5;3.7;;;;;;;;;;;;;
2021/10/21 02:50:10;;;;;;;4.1;3.3;;;;;;;;;;;;;
2021/10/21 02:52:35;;;;;;;3.2;2.4;;;;;;;;;;;;;
2021/10/21 02:55:00;;;;;;;3;2.7;;;;;;;;;;;;;
2021/10/21 02:57:25;;;;;;;3;2.6;;;;;;;;;;;;;
2021/10/21 02:59:50;;;;;;;2.7;2.4;;;;;;;;;;;;;
2021/10/21 03:02:15;;;;;;;3.4;2.7;;;;;;;;;;;;;
2021/10/21 03:04:40;;;;;;;3.1;2.5;;;;;;;;;;;;;
2021/10/21 03:07:06;;;;;;;3.5;2.8;;;;;;;;;;;;;
2021/10/21 03:09:31;;;;;;;3.3;2.6;;;;;;;;;;;;;
2021/10/21 03:11:56;;;;;;;4;2.5;;;;;;;;;;;;;
2021/10/21 03:14:21;;;;;;;4;2.6;;;;;;;;;;;;;
2021/10/21 03:16:46;;;;;;;3.6;2.7;;;;;;;;;;;;;
2021/10/21 03:19:12;;;;;;;3.2;2.8;;;;;;;;;;;;;
2021/10/21 03:21:37;;;;;;;4.1;3.1;;;;;;;;;;;;;
2021/10/21 03:24:02;;;;;;;3.8;2.6;;;;;;;;;;;;;
2021/10/21 03:26:37;;;;;;;3.1;2.6;;;;;;;;;;;;;
2021/10/21 03:29:02;;;;;;;3.9;3.1;;;;;;;;;;;;;
2021/10/21 03:31:31;;;;;;;5.7;3;;;;;;;;;;;;;
2021/10/21 03:33:53;;;;;;;5.7;3;;;;;;;;;;;;;
2021/10/21 03:36:18;;;;;;;4.4;2.9;;;;;;;;;;;;;
2021/10/21 03:38:43;;;;;;;3;2.7;;;;;;;;;;;;;
2021/10/21 03:41:08;;;;;;;4.8;3.4;;;;;;;;;;;;;
2021/10/21 03:43:34;;;;;;;3.2;2.9;;;;;;;;;;;;;
2021/10/21 03:45:59;;;;;;;5.1;3.3;;;;;;;;;;;;;
2021/10/21 03:48:24;;;;;;;4.1;3.2;;;;;;;;;;;;;
2021/10/21 03:50:49;;;;;;;5.2;3.6;;;;;;;;;;;;;
2021/10/21 03:53:15;;;;;;;3.5;3.2;;;;;;;;;;;;;
2021/10/21 03:55:40;;;;;;;4.7;3.3;;;;;;;;;;;;;
2021/10/21 03:58:05;;;;;;;5.4;3;;;;;;;;;;;;;
2021/10/21 04:02:31;;;;;;;7.6;4;;;;;;;13.07;66.00195;926.9899;;;;
2021/10/21 04:04:56;;;;;;;5.8;4.3;;;;;;;12.99;67.22949;926.853;;;;
2021/10/21 04:07:21;;;;;;;6.9;4.7;;;;;;;12.68;69.33789;926.9852;;;;
2021/10/21 04:09:46;;;;;;;5.5;3.7;;;;;;;12.71;66.7373;927.0597;;;;
2021/10/21 04:12:11;;;;;;;3.8;3.4;;;;;;;13.45;60.89648;927.0133;;;;
2021/10/21 04:14:36;;;;;;;4.7;3.3;;;;;;;13.82;60.04102;927.1125;;;;
2021/10/21 04:17:01;;;;;;;4;3.3;;;;;;;14.04;59.31152;927.1844;;;;
2021/10/21 04:19:26;;;;;;;5.8;3.6;;;;;;;14.23;60.75293;927.3684;;;;
2021/10/21 04:21:52;;;;;;;4.8;3.6;;;;;;;14.27;60.31152;927.3811;;;;
2021/10/21 04:24:17;;;;;;;3.8;3.5;;;;;;;14.36;60.32324;927.3639;;;;
2021/10/21 04:26:42;;;;;;;6.9;4.1;;;;;;;14.34;61.88574;927.4501;;;;
2021/10/21 04:29:09;;;;;;;4.3;3.8;;;;;;;14.24;61.52734;927.4875;;;;
2021/10/21 04:31:34;;;;;;;5.2;3.7;;;;;;;13.74;64.99902;927.4764;;;;
2021/10/21 04:33:59;;;;;;;5.5;4.8;;;;;;;13.62;65.38379;927.5139;;;;
2021/10/21 04:36:24;;;;;;;5.9;3.8;;;;;;;13.61;65.57813;927.5891;;;;
2021/10/21 04:38:49;;;;;;;5.9;3.8;;;;;;;13.54;64.90039;927.5369;;;;
2021/10/21 04:41:14;;;;;;;8.3;3.9;;;;;;;13.57;63.76563;927.5411;;;;
2021/10/21 04:43:40;;;;;;;6.2;4;;;;;;;13.67;64.58594;927.6786;;;;
2021/10/21 04:46:05;;;;;;;8.7;4.6;;;;;;;13.68;66.04883;927.6727;;;;
2021/10/21 04:48:31;;;;;;;5.4;3.8;;;;;;;13.44;65.79297;927.6555;;;;
2021/10/21 04:51:14;;;;;;;6.6;4.5;;;;;;;13.5;65.93945;927.6848;;;;
2021/10/21 04:54:34;;;;;;;6.6;4.2;;;;;;;13.51;66.66699;927.6861;;;;
2021/10/21 04:56:47;;;;;;;8.1;4.5;;;;;;;13.52;67.11621;927.7203;;;;
2021/10/21 04:59:12;;;;;;;7.6;4.7;;;;;;;13.52;68.32324;927.7131;;;;
2021/10/21 05:01:52;;;;;;;8.4;4.2;;;;;;;13.47;68.48926;927.7428;;;;
2021/10/21 05:04:02;;;;;;;8.9;5.3;;;;;;;13.48;69.07617;927.7162;;;;
2021/10/21 05:06:27;;;;;;;7.1;5.3;;;;;;;13.57;68.44531;927.7809;;;;
2021/10/21 05:08:52;;;;;;;7.7;4.8;;;;;;;13.33;69.29395;927.7156;;;;
2021/10/21 05:11:17;;;;;;;7.5;5.1;;;;;;;13.34;70.06445;927.7274;;;;
2021/10/21 05:13:45;;;;;;;10.4;5.7;;;;;;;13.24;69.66992;927.5925;;;;
2021/10/21 05:16:13;;;;;;;11.9;5.6;;;;;;;13.13;70.10059;927.5516;;;;
2021/10/21 05:18:38;;;;;;;8.3;5.2;;;;;;;13.13;70.68652;927.4292;;;;
2021/10/21 05:21:03;;;;;;;9.5;5.1;;;;;;;12.89;72.96582;927.4554;;;;
2021/10/21 05:23:29;;;;;;;9;5.6;;;;;;;12.87;73.24902;927.3912;;;;
2021/10/21 05:25:54;;;;;;;7.2;4.9;;;;;;;12.92;70.81348;927.3639;;;;
2021/10/21 05:28:19;;;;;;;9.9;5.5;;;;;;;12.94;71.35547;927.2812;;;;
2021/10/21 05:30:44;;;;;;;9.4;6.1;;;;;;;12.94;71.48242;927.2715;;;;
2021/10/21 05:33:10;;;;;;;7.1;5.2;;;;;;;12.99;71.61523;927.3603;;;;
2021/10/21 05:35:35;;;;;;;9.3;5.5;;;;;;;13.05;71.47656;927.4411;;;;
2021/10/21 05:38:02;;;;;;;14.9;5.8;;;;;;;13.2;71.31836;927.5305;;;;
2021/10/21 05:40:27;;;;;;;13.5;6.2;;;;;;;13.14;71.62793;927.6018;;;;
2021/10/21 05:42:52;;;;;;;11.3;6.5;;;;;;;13.16;72.44824;927.7715;;;;
2021/10/21 05:45:17;;;;;;;13.1;6.8;;;;;;;13.21;71.23828;927.7742;;;;
2021/10/21 05:47:43;;;;;;;11.6;5.7;;;;;;;13.21;71.10156;927.8911;;;;
2021/10/21 05:50:07;;;;;;;9.6;5.6;;;;;;;13.1;71.57617;927.8965;;;;
2021/10/21 05:52:33;;;;;;;9;5.7;;;;;;;12.86;72.77734;927.5814;;;;
2021/10/21 05:54:58;;;;;;;8.3;5.3;;;;;;;12.76;73.05762;927.3695;;;;
2021/10/21 05:58:14;;;;;;;7.7;5;;;;;;;12.82;72.80566;927.3879;;;;
2021/10/21 06:00:24;;;;;;;8.3;4.8;;;;;;;13.02;73.25195;927.4095;;;;
2021/10/21 06:02:49;;;;;;;7.8;4.9;;;;;;;13.13;73.28223;927.5451;;;;
2021/10/21 06:05:16;;;;;;;6.6;5.2;;;;;;;13.14;71.75586;927.4473;;;;
2021/10/21 06:07:41;;;;;;;7.4;5.1;;;;;;;13.15;72.40039;927.4744;;;;
2021/10/21 06:10:09;;;;;;;7.7;5.1;;;;;;;13.21;72.50195;927.4137;;;;
2021/10/21 06:12:39;;;;;;;10.2;5.4;;;;;;;13.14;72.78809;927.4747;;;;
2021/10/21 06:15:05;;;;;;;7.7;5.2;;;;;;;13.03;73.80371;927.5845;;;;
2021/10/21 06:17:30;;;;;;;7.8;4.9;;;;;;;13.04;73.80469;927.6403;;;;
2021/10/21 06:19:55;;;;;;;7.6;5;;;;;;;13.18;72.96777;927.7596;;;;
2021/10/21 06:22:20;;;;;;;9.5;5.4;;;;;;;13.24;73.71387;927.8211;;;;
2021/10/21 06:24:47;;;;;;;15.2;8.2;;;;;;;13.17;73.9873;928.0425;;;;
2021/10/21 06:27:12;;;;;;;8.7;5.3;;;;;;;13.18;74.59961;928.1848;;;;
2021/10/21 06:29:40;;;;;;;8.6;6.5;;;;;;;13.07;75.61426;928.2911;;;;
2021/10/21 06:32:04;;;;;;;8.3;5.5;;;;;;;13.14;74.74219;928.3154;;;;
2021/10/21 06:34:30;;;;;;;9.7;5.9;;;;;;;13.25;74.53125;928.2911;;;;
2021/10/21 06:36:55;;;;;;;8.4;5.8;;;;;;;13.42;74.68555;928.4011;;;;
2021/10/21 06:39:20;;;;;;;7.8;4.9;;;;;;;13.42;73.26172;928.5154;;;;
2021/10/21 06:41:45;;;;;;;8.9;5.4;;;;;;;13.62;72.01758;928.3923;;;;
2021/10/21 06:44:10;;;;;;;8.8;6.1;;;;;;;13.75;71.78711;928.4147;;;;
2021/10/21 06:46:36;;;;;;;9.3;5.3;;;;;;;13.61;73.73047;928.3314;;;;
2021/10/21 06:49:01;;;;;;;6.7;4.9;;;;;;;13.77;71.79004;928.3127;;;;
2021/10/21 06:51:28;;;;;;;7.2;4.5;;;;;;;13.98;70.46777;928.3384;;;;
2021/10/21 06:53:53;;;;;;;5.5;3.8;;;;;;;14.17;69.02441;928.448;;;;
2021/10/21 06:56:19;;;;;;;8.5;5.1;;;;;;;14.43;67.86719;928.4825;;;;
2021/10/21 06:58:44;;;;;;;9.7;5;;;;;;;14.55;67.18457;928.3334;;;;
2021/10/21 07:01:10;;;;;;;9.5;5.3;;;;;;;14.55;68.53125;928.5563;;;;
2021/10/21 07:03:35;;;;;;;6.6;4.2;;;;;;;14.54;68.42578;928.4482;;;;
2021/10/21 07:06:01;;;;;;;5.1;4.3;;;;;;;14.66;68.38672;928.449;;;;
2021/10/21 07:08:28;;;;;;;6.2;4.6;;;;;;;14.71;68.79883;928.3013;;;;
2021/10/21 07:10:53;;;;;;;5.9;4.2;;;;;;;14.68;70.22363;928.4767;;;;
2021/10/21 07:13:18;;;;;;;6.1;4.5;;;;;;;14.74;70.55371;928.5483;;;;
2021/10/21 07:15:44;;;;;;;5.6;3.9;;;;;;;14.79;69.58301;928.6105;;;;
2021/10/21 07:18:09;;;;;;;5.6;4.3;;;;;;;14.98;69.62598;928.7106;;;;
2021/10/21 07:20:35;;;;;;;5.5;3.6;;;;;;;15.04;69.66895;929.0809;;;;
2021/10/21 07:23:00;;;;;;;3.8;3.4;;;;;;;15.01;69.97656;929.1028;;;;
2021/10/21 07:25:29;;;;;;;3.3;3;;;;;;;15.03;70.46387;929.2816;;;;
2021/10/21 07:27:52;;;;;;;152.6;7.4;;;;;;;15.09;70.11621;929.1478;;;;
2021/10/21 07:30:17;;;;;;;2.3;2.1;;;;;;;14.94;72.21387;929.3985;;;;
2021/10/21 07:32:42;;;;;;;3.7;2.3;;;;;;;14.85;72.77539;929.4583;;;;
2021/10/21 07:35:08;;;;;;;2.8;2;;;;;;;14.81;72.78125;929.4484;;;;
2021/10/21 07:37:33;;;;;;;1.8;1.7;;;;;;;14.84;72.13965;929.5939;;;;
2021/10/21 07:39:58;;;;;;;1.5;1.4;;;;;;;14.73;73.34375;929.7953;;;;
2021/10/21 07:42:23;;;;;;;1.4;1.3;;;;;;;14.72;72.84473;929.8165;;;;
2021/10/21 07:44:49;;;;;;;1.9;1.4;;;;;;;14.64;73.61719;929.8733;;;;
2021/10/21 07:47:14;;;;;;;2.2;1.6;;;;;;;14.63;73.78809;930.0122;;;;
2021/10/21 07:49:39;;;;;;;2.6;1.8;;;;;;;14.82;73.50879;930.1208;;;;
2021/10/21 07:52:04;;;;;;;2.5;2.2;;;;;;;15.03;72.97852;930.1217;;;;
2021/10/21 07:54:30;;;;;;;4.2;2.3;;;;;;;15.13;72.81055;930.2872;;;;
2021/10/21 07:56:56;;;;;;;2.3;2;;;;;;;15.17;72.44727;930.4011;;;;
2021/10/21 07:59:21;;;;;;;1.7;1.6;;;;;;;14.97;72.27637;930.5098;;;;
2021/10/21 08:01:48;;;;;;;1.5;1.4;;;;;;;14.99;72.08398;930.5856;;;;
2021/10/21 08:04:14;;;;;;;1.6;1.5;;;;;;;15;75.30469;930.8251;;;;
2021/10/21 08:06:41;;;;;;;2.9;2.4;;;;;;;14.78;76.53516;930.9684;;;;
2021/10/21 08:09:06;;;;;;;6.8;3.5;;;;;;;14.6;78.3125;931.106;;;;
2021/10/21 08:11:31;;;;;;;4;3.1;;;;;;;14.35;81.37793;931.1538;;;;
2021/10/21 08:13:56;;;;;;;109.1;4.6;;;;;;;13.76;83.32715;931.2916;;;;
2021/10/21 08:16:21;;;;;;;232.2;7.4;;;;;;;13.6;82.69629;931.44;;;;
2021/10/21 08:18:47;;;;;;;0.7;0.7;;;;;;;13.39;81.39453;931.4695;;;;
2021/10/21 08:21:12;;;;;;;0.5;0.5;;;;;;;13.27;83.20898;931.4374;;;;
2021/10/21 08:23:38;;;;;;;0.6;0.6;;;;;;;12.95;82.89648;931.5728;;;;
2021/10/21 08:26:02;;;;;;;0.5;0.5;;;;;;;12.92;83.28125;931.7648;;;;
2021/10/21 08:28:29;;;;;;;1.8;0.5;;;;;;;12.63;83.85742;931.8688;;;;
2021/10/21 08:30:59;;;;;;;1.3;0.6;;;;;;;12.7;85.32617;931.9121;;;;
2021/10/21 08:33:24;;;;;;;0.4;0.4;;;;;;;12.56;84.10645;931.9881;;;;
2021/10/21 08:35:49;;;;;;;0.4;0.4;;;;;;;12.67;82.5332;931.9827;;;;
2021/10/21 08:38:14;;;;;;;0.5;0.5;;;;;;;12.58;81.20605;931.9441;;;;
2021/10/21 08:40:39;;;;;;;0.4;0.4;;;;;;;12.44;83.40723;932.073;;;;
2021/10/21 08:43:04;;;;;;;0.8;0.5;;;;;;;12.64;84.35059;932.1891;;;;
2021/10/21 08:45:29;;;;;;;1.3;0.5;;;;;;;12.57;83.27148;932.2803;;;;
2021/10/21 08:47:56;;;;;;;1.1;0.8;;;;;;;12.67;87.2832;932.3789;;;;
2021/10/21 08:50:20;;;;;;;0.8;0.7;;;;;;;12.9;83.68945;932.5722;;;;
2021/10/21 08:52:45;;;;;;;0.8;0.7;;;;;;;12.93;86.07129;932.5432;;;;
2021/10/21 08:55:13;;;;;;;1.8;1;;;;;;;12.97;85.42578;932.5979;;;;
2021/10/21 08:57:37;;;;;;;1.2;0.9;;;;;;;12.89;84.2041;932.6099;;;;
2021/10/21 09:00:02;;;;;;;0.8;0.6;;;;;;;12.94;82.36426;932.6358;;;;
2021/10/21 09:02:35;;;;;;;2.6;0.8;;;;;;;12.93;85.69238;932.7438;;;;
2021/10/21 09:05:04;;;;;;;1.4;0.9;;;;;;;12.99;83.06348;932.9022;;;;
2021/10/21 09:09:43;;;;;;;0.2;0.2;;;;;;;12.9;77.69727;932.9684;;;;
2021/10/21 09:12:08;;;;;;;1.3;0.4;;;;;;;12.93;80.22754;932.9387;;;;
2021/10/21 09:14:34;;;;;;;0.5;0.3;;;;;;;13.01;79.94531;932.8975;;;;
2021/10/21 09:16:58;;;;;;;1.2;0.5;;;;;;;13.01;79.49805;932.8847;;;;
2021/10/21 09:19:24;;;;;;;1.6;0.4;;;;;;;12.96;78.83203;932.8833;;;;
2021/10/21 09:21:49;;;;;;;1.3;0.4;;;;;;;12.95;79.03809;932.8122;;;;
2021/10/21 09:24:14;;;;;;;0.5;0.4;;;;;;;12.8;80.84668;932.8195;;;;
2021/10/21 09:26:39;;;;;;;0.5;0.4;;;;;;;13.01;78.83008;932.715;;;;
2021/10/21 09:29:04;;;;;;;1.6;0.5;;;;;;;12.93;76.42871;932.7692;;;;
2021/10/21 09:31:30;;;;;;;0.6;0.5;;;;;;;13.36;75.80273;932.7974;;;;
2021/10/21 09:33:56;;;;;;;2.2;1.4;;;;;;;13.66;76.48828;932.9099;;;;
2021/10/21 09:36:21;;;;;;;1.2;0.8;;;;;;;13.84;72.69922;932.9138;;;;
2021/10/21 09:38:48;;;;;;;1.1;0.8;;;;;;;14.09;72.70508;932.8669;;;;
2021/10/21 09:41:13;;;;;;;1.1;1;;;;;;;14.56;75.1123;932.7933;;;;
2021/10/21 09:43:38;;;;;;;1.1;1;;;;;;;15.03;77.83691;932.8621;;;;
2021/10/21 09:46:04;;;;;;;3.8;1.6;;;;;;;14.77;78.56152;932.897;;;;
2021/10/21 09:48:29;;;;;;;2.3;1.6;;;;;;;14.67;79.10938;932.9025;;;;
2021/10/21 09:50:54;;;;;;;2.2;1.4;;;;;;;14.86;78.73926;932.9416;;;;
2021/10/21 09:53:20;;;;;;;2.1;1.4;;;;;;;14.51;80.80664;933.0055;;;;
2021/10/21 09:55:45;;;;;;;1.7;1.6;;;;;;;14.39;82.51367;933.0298;;;;
2021/10/21 09:58:09;;;;;;;1.7;1.1;;;;;;;13.99;82.63379;933.0223;;;;
2021/10/21 10:00:34;;;;;;;1.1;0.8;;;;;;;13.96;82.47754;933.046;;;;
2021/10/21 10:02:59;;;;;;;0.9;0.8;;;;;;;13.96;82.60547;933.11;;;;
2021/10/21 10:05:25;;;;;;;0.7;0.7;;;;;;;13.73;83.60742;933.2204;;;;
2021/10/21 10:08:08;;;;;;;2.2;1.1;;;;;;;13.56;83.43652;933.1803;;;;
2021/10/21 10:10:15;;;;;;;2.5;1.3;;;;;;;13.54;82.80078;933.1805;;;;
2021/10/21 10:12:40;;;;;;;1.8;1.1;;;;;;;13.55;82.30859;933.2219;;;;
2021/10/21 10:15:09;;;;;;;2.2;1.8;;;;;;;13.75;81.27441;933.3042;;;;
2021/10/21 10:17:34;;;;;;;1.4;1;;;;;;;13.8;76.01563;933.3236;;;;
2021/10/21 10:20:00;;;;;;;2.5;1.6;;;;;;;13.79;78.91504;933.2709;;;;
2021/10/21 10:22:25;;;;;;;2.2;1.2;;;;;;;13.91;77.2334;933.2131;;;;
2021/10/21 10:24:50;;;;;;;1.3;0.5;;;;;;;14.02;70.49609;933.2522;;;;
2021/10/21 10:27:15;;;;;;;1.3;0.6;;;;;;;14.17;70.82031;933.2999;;;;
2021/10/21 10:29:41;;;;;;;1.1;1;;;;;;;14.07;79.49512;933.3315;;;;
2021/10/21 10:32:05;;;;;;;1;0.5;;;;;;;14.03;79.86621;933.308;;;;
2021/10/21 10:34:30;;;;;;;0.5;0.5;;;;;;;14.17;80.6416;933.2896;;;;
2021/10/21 10:36:55;;;;;;;1.3;0.5;;;;;;;14.57;76.6123;933.3042;;;;
2021/10/21 10:39:21;;;;;;;0.6;0.6;;;;;;;15.03;75.31055;933.178;;;;
2021/10/21 10:41:48;;;;;;;1;0.5;;;;;;;15.24;75.81934;933.28;;;;
2021/10/21 10:44:11;;;;;;;1.5;0.8;;;;;;;15.08;75.87207;933.219;;;;
2021/10/21 10:46:36;;;;;;;1.5;0.6;;;;;;;14.99;60.86035;933.1383;;;;
2021/10/21 10:49:02;;;;;;;4.6;1.4;;;;;;;15.06;61.75781;933.1223;;;;
2021/10/21 10:51:26;;;;;;;1.7;0.9;;;;;;;15.37;63.33789;933.2121;;;;
2021/10/21 10:53:52;;;;;;;1.9;0.9;;;;;;;15.51;58.94531;933.1554;;;;
2021/10/21 10:56:18;;;;;;;21.5;1.1;;;;;;;15.7;60.52051;933.1581;;;;
2021/10/21 10:58:43;;;;;;;2;0.7;;;;;;;15.68;62.41211;933.2164;;;;
2021/10/21 11:01:08;;;;;;;1.7;0.7;;;;;;;15.78;57.43359;933.1005;;;;
2021/10/21 11:03:35;;;;;;;1.2;0.9;;;;;;;15.59;57.55859;933.1631;;;;
2021/10/21 11:06:01;;;;;;;1.4;0.7;;;;;;;15.62;59.06445;933.207;;;;
2021/10/21 11:08:26;;;;;;;1.3;0.7;;;;;;;15.5;57.44336;933.1203;;;;
2021/10/21 11:10:51;;;;;;;1.3;0.5;;;;;;;15.31;57.08203;933.1699;;;;
2021/10/21 11:13:16;;;;;;;4;0.6;;;;;;;15.05;58.2832;933.2395;;;;
2021/10/21 11:15:42;;;;;;;1.1;0.6;;;;;;;15.22;55.47852;933.1384;;;;
2021/10/21 11:18:07;;;;;;;3.3;1.1;;;;;;;15.4;54.94727;933.1033;;;;
2021/10/21 11:20:33;;;;;;;1;0.7;;;;;;;15.37;53.93945;933.2177;;;;
2021/10/21 11:22:58;;;;;;;1.3;0.6;;;;;;;15.4;55.06348;933.0905;;;;
2021/10/21 11:25:24;;;;;;;0.8;0.6;;;;;;;15.11;54.43848;933.0718;;;;
2021/10/21 11:27:49;;;;;;;3.1;0.8;;;;;;;15.44;54.65234;933.0524;;;;
2021/10/21 11:30:17;;;;;;;235.2;6.3;;;;;;;15.35;52.62109;933.0415;;;;
2021/10/21 11:32:41;;;;;;;1.8;0.6;;;;;;;15.16;53.03613;933.1055;;;;
2021/10/21 11:35:35;;;;;;;1.6;0.9;;;;;;;15.05;54.11914;933.1578;;;;
2021/10/21 11:38:00;;;;;;;1;0.5;;;;;;;15;52.7168;933.1494;;;;
2021/10/21 11:40:25;;;;;;;1.1;0.5;;;;;;;15.14;52.00684;933.1539;;;;
2021/10/21 11:42:51;;;;;;;0.8;0.5;;;;;;;15.11;54.48438;933.2033;;;;
2021/10/21 11:45:15;;;;;;;0.6;0.4;;;;;;;15.32;52.55957;933.0901;;;;
2021/10/21 11:47:40;;;;;;;1.6;0.5;;;;;;;15.29;52.94824;933.1492;;;;
2021/10/21 11:50:06;;;;;;;1.3;0.6;;;;;;;15.32;55.00684;933.0999;;;;
2021/10/21 11:52:31;;;;;;;1.1;0.4;;;;;;;15.23;51.70508;933.1344;;;;
2021/10/21 11:54:56;;;;;;;1.5;0.4;;;;;;;15.16;53.04785;933.1063;;;;
2021/10/21 11:57:29;;;;;;;2.4;0.5;;;;;;;15.17;50.85645;933.0908;;;;
2021/10/21 11:59:53;;;;;;;0.8;0.5;;;;;;;15.22;50.94336;933.0598;;;;
2021/10/21 12:02:19;;;;;;;1.7;0.4;;;;;;;15.06;51.375;933.1223;;;;
2021/10/21 12:04:44;;;;;;;2.2;0.7;;;;;;;15.14;49.41113;932.975;;;;
2021/10/21 12:07:09;;;;;;;11;1;;;;;;;15.13;50.35547;932.851;;;;
2021/10/21 12:09:35;;;;;;;398.1;10.4;;;;;;;14.98;49.28906;932.8258;;;;
2021/10/21 12:11:59;;;;;;;1.9;0.5;;;;;;;14.87;50.90234;932.9542;;;;
2021/10/21 12:14:24;;;;;;;1.1;0.7;;;;;;;14.95;51.37305;932.8167;;;;
2021/10/21 12:16:49;;;;;;;1.5;0.7;;;;;;;15.01;50.82617;932.7628;;;;
2021/10/21 12:19:14;;;;;;;1.4;0.7;;;;;;;15.52;48.97949;932.7628;;;;
2021/10/21 12:21:41;;;;;;;105.8;3.4;;;;;;;15.39;47.68359;932.7062;;;;
2021/10/21 12:24:05;;;;;;;178.1;5.5;;;;;;;16.37;44.95605;932.6499;;;;
2021/10/21 12:26:31;;;;;;;101.3;3.1;;;;;;;16.88;43.38574;932.6347;;;;
2021/10/21 12:28:56;;;;;;;1.9;0.6;;;;;;;18.63;41.36035;932.605;;;;
2021/10/21 12:31:21;;;;;;;1.4;0.7;;;;;;;20.83;37.30078;932.582;;;;
2021/10/21 12:33:46;;;;;;;2.2;0.8;;;;;;;22.52;33.8291;932.4247;;;;
2021/10/21 12:36:16;;;;;;;305.3;12.6;;;;;;;22.83;31.71582;932.3675;;;;
2021/10/21 12:38:36;;;;;;;1.9;0.4;;;;;;;21.77;33.9707;932.3943;;;;
2021/10/21 12:41:02;;;;;;;0.5;0.5;;;;;;;21.59;33.72266;932.3067;;;;
2021/10/21 12:43:27;;;;;;;2.5;0.6;;;;;;;22.87;33.57422;932.2792;;;;
2021/10/21 12:45:54;;;;;;;1.3;0.7;;;;;;;23.7;30.87109;932.2408;;;;
2021/10/21 12:48:19;;;;;;;1.4;0.5;;;;;;;22.26;31.78027;932.1442;;;;
2021/10/21 12:50:44;;;;;;;1.8;0.6;;;;;;;23.53;30.91797;932.2488;;;;
2021/10/21 12:53:10;;;;;;;1.4;0.7;;;;;;;22.69;31.94043;932.1817;;;;
2021/10/21 12:55:37;;;;;;;3.9;0.8;;;;;;;22.52;32.15137;932.1844;;;;
2021/10/21 12:58:04;;;;;;;0.9;0.5;;;;;;;23.61;30.10059;932.1321;;;;
2021/10/21 13:00:27;;;;;;;2.1;0.7;;;;;;;23.84;31.52832;932.1333;;;;
2021/10/21 13:02:52;;;;;;;1.5;0.9;;;;;;;25.97;29.90527;932.0844;;;;
2021/10/21 13:05:17;;;;;;;2.3;0.7;;;;;;;24.62;28.79004;932.0988;;;;
2021/10/21 13:07:43;;;;;;;1.6;0.7;;;;;;;24.27;28.71973;932.2047;;;;
2021/10/21 13:10:08;;;;;;;1.8;0.4;;;;;;;23.49;29.25879;932.175;;;;
2021/10/21 13:12:33;;;;;;;1;0.5;;;;;;;23.42;31.44043;932.1965;;;;
2021/10/21 13:14:58;;;;;;;2.2;0.6;;;;;;;24.84;29.83008;932.1293;;;;
2021/10/21 13:17:36;;;;;;;0.9;0.5;;;;;;;24.97;27.27832;932.1506;;;;
2021/10/21 13:19:52;;;;;;;1.4;0.5;;;;;;;24.04;28.91699;932.2183;;;;
2021/10/21 13:22:17;;;;;;;1.6;0.7;;;;;;;24.31;29.1582;932.3193;;;;
2021/10/21 13:24:44;;;;;;;2.3;0.5;;;;;;;24.99;28.75488;932.2703;;;;
2021/10/21 13:27:18;;;;;;;1.5;0.5;;;;;;;25.36;27.06641;932.2361;;;;
2021/10/21 13:29:45;;;;;;;1.2;0.5;;;;;;;25.26;28.11035;932.2673;;;;
2021/10/21 13:32:09;;;;;;;1.7;0.5;;;;;;;26.02;26.43164;932.2745;;;;
2021/10/21 13:34:34;;;;;;;1.2;0.5;;;;;;;25.19;27.38574;932.2311;;;;
2021/10/21 13:37:00;;;;;;;1.4;0.5;;;;;;;24.63;28.99023;932.3189;;;;
2021/10/21 13:39:25;;;;;;;1.6;0.5;;;;;;;24.57;29.87109;932.5317;;;;
2021/10/21 13:41:50;;;;;;;0.9;0.4;;;;;;;24.3;28.81641;932.4517;;;;
2021/10/21 13:44:17;;;;;;;1.9;0.8;;;;;;;25.33;28.35156;932.3667;;;;
2021/10/21 13:46:42;;;;;;;1.5;0.5;;;;;;;25.74;27.16016;932.4165;;;;
2021/10/21 13:49:07;;;;;;;1.9;0.4;;;;;;;25.15;27.93848;932.503;;;;
2021/10/21 13:51:32;;;;;;;1.3;0.6;;;;;;;24.7;27.88672;932.4701;;;;
2021/10/21 13:54:01;;;;;;;2.5;0.4;;;;;;;23.54;31.74316;932.5694;;;;
2021/10/21 13:56:27;;;;;;;5.2;0.7;;;;;;;21.28;33.29004;932.5179;;;;
2021/10/21 13:58:51;;;;;;;1.6;0.7;;;;;;;19.94;35.96582;932.561;;;;
2021/10/21 14:01:21;;;;;;;4.4;1.1;;;;;;;19.17;38.08008;932.5834;;;;
2021/10/21 14:03:41;;;;;;;1.4;0.5;;;;;;;20.45;37.08105;932.5914;;;;
2021/10/21 14:06:09;;;;;;;0.8;0.4;;;;;;;19.86;35.46973;932.5856;;;;
2021/10/21 14:08:35;;;;;;;1.4;0.6;;;;;;;18.35;40.89355;932.6139;;;;
2021/10/21 14:10:59;;;;;;;1.7;0.6;;;;;;;17.99;40.70801;932.6351;;;;
2021/10/21 14:13:24;;;;;;;1.8;0.5;;;;;;;17.69;42.53711;932.6094;;;;
2021/10/21 14:15:50;;;;;;;1.7;0.6;;;;;;;17.38;42.38086;932.6245;;;;
2021/10/21 14:18:15;;;;;;;1.4;0.8;;;;;;;17.13;42.62305;932.6007;;;;
2021/10/21 14:20:40;;;;;;;3.2;0.7;;;;;;;16.68;44.59277;932.677;;;;
2021/10/21 14:23:06;;;;;;;1.6;0.6;;;;;;;16.34;45.98242;932.6716;;;;
2021/10/21 14:25:31;;;;;;;2.7;0.7;;;;;;;16.28;45.00391;932.7436;;;;
2021/10/21 14:28:00;;;;;;;3.1;0.8;;;;;;;16.1;44.25781;932.6409;;;;
2021/10/21 14:30:25;;;;;;;1.9;0.7;;;;;;;15.97;45.00684;932.7575;;;;
2021/10/21 14:32:52;;;;;;;1.6;0.7;;;;;;;15.8;44.40039;932.7316;;;;
2021/10/21 14:35:17;;;;;;;4;0.7;;;;;;;15.76;46.01465;932.7347;;;;
2021/10/21 14:37:42;;;;;;;2.8;1;;;;;;;15.72;46.10156;932.6898;;;;
2021/10/21 14:40:08;;;;;;;1.7;0.9;;;;;;;15.68;46.04004;932.7757;;;;
2021/10/21 14:42:33;;;;;;;1.5;0.6;;;;;;;15.6;45.23438;932.7352;;;;
2021/10/21 14:44:58;;;;;;;1.7;0.6;;;;;;;15.64;45.78125;932.7869;;;;
2021/10/21 14:47:23;;;;;;;2.9;0.5;;;;;;;15.74;46.10449;932.7986;;;;
2021/10/21 14:49:50;;;;;;;2.3;0.6;;;;;;;15.69;45.56738;932.6855;;;;
2021/10/21 14:52:15;;;;;;;1.5;0.6;;;;;;;15.56;46.61621;932.7766;;;;
2021/10/21 14:54:40;;;;;;;0.9;0.7;;;;;;;15.48;48.02734;932.8711;;;;
2021/10/21 14:57:05;;;;;;;2.9;0.7;;;;;;;15.43;49.07422;932.8262;;;;
2021/10/21 14:59:30;;;;;;;1.8;0.6;;;;;;;15.58;47.49609;932.8211;;;;
2021/10/21 15:01:55;;;;;;;2;0.9;;;;;;;15.32;48.49609;932.7766;;;;
2021/10/21 15:04:23;;;;;;;5.5;1.1;;;;;;;15.33;48.03613;932.8686;;;;
2021/10/21 15:07:13;;;;;;;5.1;1.3;;;;;;;15.28;47.67188;932.823;;;;
2021/10/21 15:09:26;;;;;;;3.3;0.9;;;;;;;15.27;49.29785;932.7486;;;;
2021/10/21 15:12:05;;;;;;;2.6;1;;;;;;;15.19;49.50879;932.8122;;;;
2021/10/21 15:14:38;;;;;;;5.3;1.3;;;;;;;14.96;49.43652;932.6465;;;;
2021/10/21 15:23:45;;;;;;;4.5;0.9;;;;;;;14.98;51.12207;932.7834;;;;
2021/10/21 15:26:10;;;;;;;2.2;0.9;;;;;;;14.87;51.20215;932.7626;;;;
2021/10/21 15:28:35;;;;;;;5.3;1.1;;;;;;;14.75;51.46484;932.7834;;;;
2021/10/21 15:31:00;;;;;;;5.2;0.8;;;;;;;14.7;51.80566;932.7473;;;;
2021/10/21 15:33:26;;;;;;;2.1;0.5;;;;;;;14.46;51.67188;932.6937;;;;
2021/10/21 15:35:52;;;;;;;5.5;0.8;;;;;;;14.49;51.74512;932.8215;;;;
2021/10/21 15:38:20;;;;;;;2.6;1;;;;;;;14.51;51.67773;932.738;;;;